createdAt,value
2019-02-02T00:00:01.926Z,21.10
2019-02-02T00:01:21.740Z,22.45
2019-02-02T00:02:27.546Z,22.55
2019-02-02T00:03:31.541Z,22.02
2019-02-02T00:04:35.638Z,20.52
2019-02-02T00:05:39.558Z,21.05
2019-02-02T00:06:43.550Z,20.90
2019-02-02T00:07:47.656Z,20.32
2019-02-02T00:08:51.591Z,22.30
2019-02-02T00:09:55.698Z,21.48
2019-02-02T00:10:59.707Z,21.87
2019-02-02T00:12:03.836Z,21.17
2019-02-02T00:13:07.965Z,21.05
2019-02-02T00:14:12.109Z,21.87
2019-02-02T00:15:16.049Z,21.10
2019-02-02T00:16:20.071Z,20.30
2019-02-02T00:17:24.059Z,21.57
2019-02-02T00:18:28.181Z,20.55
2019-02-02T00:19:32.155Z,21.30
2019-02-02T00:20:36.066Z,20.08
2019-02-02T00:21:40.198Z,21.52
2019-02-02T00:22:44.193Z,22.87
2019-02-02T00:23:48.071Z,20.75
2019-02-02T00:24:52.020Z,19.95
2019-02-02T00:25:55.993Z,20.97
2019-02-02T00:27:00.074Z,21.20
2019-02-02T00:28:03.984Z,21.62
2019-02-02T00:29:07.881Z,20.88
2019-02-02T00:30:12.559Z,19.12
2019-02-02T00:31:16.580Z,22.27
2019-02-02T00:32:20.674Z,20.30
2019-02-02T00:33:24.694Z,20.45
2019-02-02T00:34:28.862Z,20.68
2019-02-02T00:35:32.774Z,21.55
2019-02-02T00:36:36.739Z,19.95
2019-02-02T00:37:40.854Z,19.87
2019-02-02T00:38:44.966Z,20.12
2019-02-02T00:39:48.995Z,19.67
2019-02-02T00:40:53.018Z,21.30
2019-02-02T00:41:56.919Z,21.87
2019-02-02T00:43:00.963Z,20.37
2019-02-02T00:44:05.304Z,21.07
2019-02-02T00:45:10.175Z,18.85
2019-02-02T00:46:14.181Z,21.07
2019-02-02T00:47:18.546Z,22.55
2019-02-02T00:48:22.723Z,21.52
2019-02-02T00:49:26.839Z,21.10
2019-02-02T00:50:30.635Z,21.40
2019-02-02T00:51:34.773Z,20.30
2019-02-02T00:52:38.679Z,20.60
2019-02-02T00:53:42.787Z,21.23
2019-02-02T00:54:46.794Z,20.17
2019-02-02T00:55:50.759Z,22.40
2019-02-02T00:56:54.913Z,21.15
2019-02-02T00:57:58.829Z,21.80
2019-02-02T00:59:02.747Z,20.32
2019-02-02T01:00:08.648Z,20.48
2019-02-02T01:01:12.605Z,20.95
2019-02-02T01:02:16.439Z,20.70
2019-02-02T01:03:20.531Z,20.85
2019-02-02T01:04:24.719Z,21.25
2019-02-02T01:05:28.730Z,20.43
2019-02-02T01:06:32.665Z,19.95
2019-02-02T01:07:36.535Z,21.33
2019-02-02T01:08:41.295Z,20.08
2019-02-02T01:09:45.347Z,20.35
2019-02-02T01:10:49.714Z,20.43
2019-02-02T01:11:53.703Z,19.20
2019-02-02T01:12:57.515Z,20.65
2019-02-02T01:14:01.425Z,19.82
2019-02-02T01:15:05.687Z,20.75
2019-02-02T01:16:09.714Z,19.92
2019-02-02T01:17:14.439Z,21.00
2019-02-02T01:18:18.543Z,19.35
2019-02-02T01:19:22.560Z,19.32
2019-02-02T01:20:26.704Z,20.43
2019-02-02T01:21:30.690Z,19.37
2019-02-02T01:22:34.599Z,19.17
2019-02-02T01:23:38.558Z,19.32
2019-02-02T01:24:42.587Z,20.20
2019-02-02T01:25:46.639Z,18.67
2019-02-02T01:26:50.847Z,20.90
2019-02-02T01:28:04.928Z,19.32
2019-02-02T01:29:00.752Z,18.77
2019-02-02T01:30:06.593Z,20.05
2019-02-02T01:31:10.543Z,19.20
2019-02-02T01:32:14.463Z,19.57
2019-02-02T01:33:18.380Z,19.85
2019-02-02T01:34:22.401Z,19.15
2019-02-02T01:35:26.530Z,20.30
2019-02-02T01:36:30.782Z,19.25
2019-02-02T01:37:34.694Z,19.40
2019-02-02T01:38:38.805Z,20.72
2019-02-02T01:39:42.603Z,19.98
2019-02-02T01:40:46.621Z,21.10
2019-02-02T01:41:50.643Z,18.17
2019-02-02T01:42:54.857Z,19.37
2019-02-02T01:43:58.891Z,18.02
2019-02-02T01:45:02.997Z,19.55
2019-02-02T01:46:06.795Z,19.87
2019-02-02T01:47:10.740Z,21.15
2019-02-02T01:48:14.855Z,20.97
2019-02-02T01:49:18.759Z,19.73
2019-02-02T01:50:24.040Z,18.00
2019-02-02T01:51:28.152Z,19.25
2019-02-02T01:52:32.365Z,18.82
2019-02-02T01:53:36.459Z,19.25
2019-02-02T01:54:40.507Z,18.48
2019-02-02T01:55:44.591Z,19.25
2019-02-02T01:56:48.602Z,19.80
2019-02-02T01:57:52.581Z,21.17
2019-02-02T01:58:56.679Z,20.20
2019-02-02T02:00:00.611Z,19.77
2019-02-02T02:01:04.960Z,21.17
2019-02-02T02:02:08.946Z,20.12
2019-02-02T02:03:12.961Z,20.70
2019-02-02T02:04:17.005Z,19.77
2019-02-02T02:05:21.015Z,21.00
2019-02-02T02:06:25.045Z,19.30
2019-02-02T02:07:28.864Z,20.80
2019-02-02T02:08:32.665Z,19.48
2019-02-02T02:09:36.525Z,21.60
2019-02-02T02:10:40.543Z,20.88
2019-02-02T02:11:44.609Z,18.62
2019-02-02T02:12:48.721Z,21.33
2019-02-02T02:13:52.728Z,18.55
2019-02-02T02:14:56.772Z,20.15
2019-02-02T02:16:01.245Z,20.97
2019-02-02T02:17:05.356Z,19.23
2019-02-02T02:18:09.360Z,19.75
2019-02-02T02:19:13.459Z,18.60
2019-02-02T02:20:17.939Z,19.55
2019-02-02T02:21:21.957Z,19.00
2019-02-02T02:22:26.052Z,20.15
2019-02-02T02:23:29.985Z,20.75
2019-02-02T02:24:33.999Z,20.20
2019-02-02T02:25:38.154Z,19.40
2019-02-02T02:26:42.283Z,20.32
2019-02-02T02:27:46.299Z,19.73
2019-02-02T02:28:50.137Z,20.97
2019-02-02T02:29:54.138Z,20.72
2019-02-02T02:30:58.147Z,20.85
2019-02-02T02:32:02.306Z,20.30
2019-02-02T02:33:06.373Z,19.23
2019-02-02T02:34:10.363Z,20.25
2019-02-02T02:35:14.289Z,20.30
2019-02-02T02:36:18.323Z,19.90
2019-02-02T02:37:22.133Z,19.62
2019-02-02T02:38:26.068Z,19.67
2019-02-02T02:39:30.088Z,20.30
2019-02-02T02:40:34.111Z,20.35
2019-02-02T02:41:38.130Z,21.20
2019-02-02T02:42:41.985Z,19.70
2019-02-02T02:43:46.115Z,20.02
2019-02-02T02:44:50.112Z,20.52
2019-02-02T02:45:54.122Z,21.02
2019-02-02T02:46:58.151Z,20.43
2019-02-02T02:48:02.187Z,19.75
2019-02-02T02:49:06.227Z,20.77
2019-02-02T02:50:12.766Z,19.85
2019-02-02T02:51:16.971Z,20.05
2019-02-02T02:52:20.822Z,21.68
2019-02-02T02:53:24.825Z,18.52
2019-02-02T02:54:28.922Z,20.23
2019-02-02T02:55:32.898Z,19.95
2019-02-02T02:56:36.925Z,21.10
2019-02-02T02:57:41.008Z,19.67
2019-02-02T02:58:44.927Z,20.00
2019-02-02T02:59:48.811Z,20.90
2019-02-02T03:00:52.817Z,20.27
2019-02-02T03:01:56.992Z,20.10
2019-02-02T03:03:01.016Z,19.42
2019-02-02T03:04:05.105Z,19.92
2019-02-02T03:05:09.862Z,21.20
2019-02-02T03:06:13.891Z,20.08
2019-02-02T03:07:19.581Z,21.20
2019-02-02T03:08:23.935Z,19.42
2019-02-02T03:09:27.967Z,18.92
2019-02-02T03:10:32.081Z,19.40
2019-02-02T03:11:36.516Z,18.67
2019-02-02T03:12:40.954Z,20.55
2019-02-02T03:13:44.900Z,20.68
2019-02-02T03:14:48.827Z,19.52
2019-02-02T03:15:52.883Z,19.25
2019-02-02T03:16:56.732Z,20.50
2019-02-02T03:18:00.931Z,21.10
2019-02-02T03:19:04.840Z,21.60
2019-02-02T03:20:09.345Z,21.07
2019-02-02T03:21:13.381Z,20.27
2019-02-02T03:22:17.410Z,21.20
2019-02-02T03:23:21.556Z,21.02
2019-02-02T03:24:25.505Z,19.77
2019-02-02T03:25:29.335Z,21.10
2019-02-02T03:26:33.365Z,20.65
2019-02-02T03:27:37.258Z,21.50
2019-02-02T03:28:52.935Z,20.60
2019-02-02T03:29:46.880Z,20.00
2019-02-02T03:30:50.835Z,18.40
2019-02-02T03:31:54.967Z,20.27
2019-02-02T03:32:58.953Z,19.77
2019-02-02T03:34:02.991Z,21.02
2019-02-02T03:35:07.711Z,21.23
2019-02-02T03:36:11.639Z,21.65
2019-02-02T03:37:15.741Z,20.75
2019-02-02T03:38:20.013Z,20.75
2019-02-02T03:39:24.211Z,20.65
2019-02-02T03:40:28.343Z,19.37
2019-02-02T03:41:32.360Z,19.40
2019-02-02T03:42:36.358Z,19.62
2019-02-02T03:43:40.246Z,20.52
2019-02-02T03:44:44.300Z,20.00
2019-02-02T03:45:48.316Z,20.10
2019-02-02T03:46:52.335Z,19.50
2019-02-02T03:47:56.339Z,20.08
2019-02-02T03:49:00.379Z,19.90
2019-02-02T03:50:05.277Z,18.32
2019-02-02T03:51:09.613Z,18.95
2019-02-02T03:52:13.623Z,18.98
2019-02-02T03:53:17.527Z,19.20
2019-02-02T03:54:21.452Z,19.20
2019-02-02T03:55:25.692Z,20.12
2019-02-02T03:56:29.767Z,19.32
2019-02-02T03:57:33.783Z,19.48
2019-02-02T03:58:37.879Z,19.50
2019-02-02T03:59:41.995Z,19.87
2019-02-02T04:00:46.139Z,21.27
2019-02-02T04:01:50.057Z,21.60
2019-02-02T04:02:54.009Z,19.75
2019-02-02T04:03:58.033Z,19.90
2019-02-02T04:05:02.175Z,20.85
2019-02-02T04:06:06.189Z,19.82
2019-02-02T04:07:10.188Z,19.30
2019-02-02T04:08:14.124Z,19.98
2019-02-02T04:09:18.291Z,21.50
2019-02-02T04:10:22.304Z,20.05
2019-02-02T04:11:26.312Z,20.72
2019-02-02T04:12:30.219Z,20.68
2019-02-02T04:13:34.243Z,22.20
2019-02-02T04:14:38.019Z,20.48
2019-02-02T04:15:41.959Z,19.05
2019-02-02T04:16:46.125Z,19.32
2019-02-02T04:17:50.237Z,19.23
2019-02-02T04:18:54.368Z,20.37
2019-02-02T04:19:58.509Z,20.43
2019-02-02T04:21:02.485Z,19.82
2019-02-02T04:22:06.428Z,19.90
2019-02-02T04:23:10.429Z,19.02
2019-02-02T04:24:14.465Z,21.30
2019-02-02T04:25:19.327Z,19.12
2019-02-02T04:26:23.261Z,21.87
2019-02-02T04:27:27.295Z,20.27
2019-02-02T04:28:31.315Z,19.27
2019-02-02T04:29:35.215Z,20.60
2019-02-02T04:30:39.213Z,19.90
2019-02-02T04:31:43.331Z,21.25
2019-02-02T04:32:47.377Z,19.90
2019-02-02T04:33:51.406Z,21.07
2019-02-02T04:34:55.326Z,20.32
2019-02-02T04:35:59.331Z,18.85
2019-02-02T04:37:03.419Z,20.62
2019-02-02T04:38:07.532Z,19.70
2019-02-02T04:39:11.635Z,19.52
2019-02-02T04:40:15.563Z,20.52
2019-02-02T04:41:19.525Z,20.57
2019-02-02T04:42:23.453Z,18.35
2019-02-02T04:43:27.583Z,20.25
2019-02-02T04:44:31.399Z,20.40
2019-02-02T04:45:35.328Z,19.23
2019-02-02T04:46:39.432Z,20.48
2019-02-02T04:47:43.347Z,19.00
2019-02-02T04:48:47.411Z,19.90
2019-02-02T04:49:51.227Z,19.23
2019-02-02T04:50:55.137Z,20.48
2019-02-02T04:51:59.237Z,19.67
2019-02-02T04:53:03.267Z,19.50
2019-02-02T04:54:07.386Z,21.42
2019-02-02T04:55:12.445Z,19.98
2019-02-02T04:56:16.579Z,19.48
2019-02-02T04:57:20.579Z,18.37
2019-02-02T04:58:24.651Z,20.02
2019-02-02T04:59:29.605Z,19.80
2019-02-02T05:00:33.685Z,20.50
2019-02-02T05:01:37.727Z,18.07
2019-02-02T05:02:41.745Z,18.50
2019-02-02T05:03:45.765Z,19.30
2019-02-02T05:04:49.652Z,19.82
2019-02-02T05:05:53.743Z,19.65
2019-02-02T05:06:57.801Z,19.70
2019-02-02T05:08:01.829Z,19.50
2019-02-02T05:09:07.819Z,19.57
2019-02-02T05:10:13.988Z,19.92
2019-02-02T05:11:17.973Z,21.10
2019-02-02T05:12:21.988Z,19.50
2019-02-02T05:13:25.983Z,20.60
2019-02-02T05:14:30.089Z,20.37
2019-02-02T05:15:33.914Z,21.40
2019-02-02T05:16:37.947Z,20.23
2019-02-02T05:17:42.012Z,20.35
2019-02-02T05:18:45.952Z,19.40
2019-02-02T05:19:49.965Z,19.95
2019-02-02T05:20:53.896Z,20.60
2019-02-02T05:21:57.999Z,19.95
2019-02-02T05:23:01.901Z,21.00
2019-02-02T05:24:05.958Z,20.30
2019-02-02T05:25:09.907Z,19.32
2019-02-02T05:26:14.197Z,20.30
2019-02-02T05:27:18.354Z,19.92
2019-02-02T05:28:22.139Z,19.52
2019-02-02T05:29:26.079Z,20.62
2019-02-02T05:30:30.874Z,20.43
2019-02-02T05:31:35.023Z,19.92
2019-02-02T05:32:39.011Z,19.15
2019-02-02T05:33:42.913Z,19.07
2019-02-02T05:34:47.031Z,20.72
2019-02-02T05:35:51.189Z,19.85
2019-02-02T05:36:55.206Z,21.52
2019-02-02T05:37:59.187Z,19.75
2019-02-02T05:39:04.170Z,19.95
2019-02-02T05:40:10.088Z,19.35
2019-02-02T05:41:14.009Z,20.43
2019-02-02T05:42:18.145Z,21.02
2019-02-02T05:43:22.267Z,21.87
2019-02-02T05:44:26.257Z,21.00
2019-02-02T05:45:30.295Z,19.98
2019-02-02T05:46:34.206Z,20.60
2019-02-02T05:47:38.396Z,19.77
2019-02-02T05:48:42.482Z,21.20
2019-02-02T05:49:49.476Z,20.70
2019-02-02T05:50:52.279Z,21.15
2019-02-02T05:51:56.324Z,22.07
2019-02-02T05:53:00.229Z,21.65
2019-02-02T05:54:04.230Z,21.68
2019-02-02T05:55:09.765Z,21.80
2019-02-02T05:56:13.739Z,22.22
2019-02-02T05:57:17.908Z,21.55
2019-02-02T05:58:21.897Z,21.05
2019-02-02T05:59:25.816Z,20.40
2019-02-02T06:00:42.901Z,19.80
2019-02-02T06:01:46.937Z,21.65
2019-02-02T06:02:50.996Z,20.30
2019-02-02T06:03:55.006Z,21.15
2019-02-02T06:04:58.895Z,22.20
2019-02-02T06:06:02.901Z,21.65
2019-02-02T06:07:06.925Z,23.32
2019-02-02T06:08:11.011Z,21.42
2019-02-02T06:09:15.122Z,22.17
2019-02-02T06:10:19.189Z,21.02
2019-02-02T06:11:23.379Z,21.80
2019-02-02T06:12:27.237Z,24.70
2019-02-02T06:13:31.319Z,24.67
2019-02-02T06:14:35.223Z,23.05
2019-02-02T06:15:39.229Z,24.67
2019-02-02T06:16:43.233Z,25.08
2019-02-02T06:17:47.633Z,25.10
2019-02-02T06:18:51.689Z,23.05
2019-02-02T06:19:55.594Z,24.32
2019-02-02T06:20:59.694Z,23.00
2019-02-02T06:22:03.723Z,24.37
2019-02-02T06:23:07.864Z,21.93
2019-02-02T06:24:11.752Z,21.97
2019-02-02T06:25:15.894Z,23.45
2019-02-02T06:26:19.755Z,22.50
2019-02-02T06:27:23.753Z,22.40
2019-02-02T06:28:27.907Z,22.95
2019-02-02T06:29:31.827Z,22.85
2019-02-02T06:30:35.953Z,23.85
2019-02-02T06:31:39.973Z,23.25
2019-02-02T06:32:43.971Z,22.85
2019-02-02T06:33:47.942Z,25.57
2019-02-02T06:34:51.963Z,21.27
2019-02-02T06:35:55.996Z,22.37
2019-02-02T06:37:00.097Z,23.02
2019-02-02T06:38:04.109Z,21.52
2019-02-02T06:39:08.535Z,21.30
2019-02-02T06:40:13.281Z,23.18
2019-02-02T06:41:17.303Z,22.35
2019-02-02T06:42:21.581Z,21.80
2019-02-02T06:43:25.673Z,21.02
2019-02-02T06:44:29.639Z,21.85
2019-02-02T06:45:35.397Z,20.92
2019-02-02T06:46:43.695Z,21.50
2019-02-02T06:47:45.494Z,23.02
2019-02-02T06:48:49.403Z,23.12
2019-02-02T06:49:53.361Z,22.62
2019-02-02T06:50:57.364Z,24.20
2019-02-02T06:52:01.404Z,23.20
2019-02-02T06:53:05.897Z,22.80
2019-02-02T06:54:09.803Z,24.07
2019-02-02T06:55:14.362Z,23.60
2019-02-02T06:56:18.507Z,23.50
2019-02-02T06:57:22.295Z,20.90
2019-02-02T06:58:26.303Z,23.85
2019-02-02T06:59:30.432Z,20.85
2019-02-02T07:00:34.519Z,22.10
2019-02-02T07:01:38.553Z,22.45
2019-02-02T07:02:42.688Z,22.67
2019-02-02T07:03:46.665Z,22.17
2019-02-02T07:04:50.687Z,22.75
2019-02-02T07:05:54.717Z,22.55
2019-02-02T07:06:58.786Z,21.75
2019-02-02T07:08:02.800Z,23.25
2019-02-02T07:09:08.614Z,23.20
2019-02-02T07:10:15.816Z,22.37
2019-02-02T07:11:19.963Z,23.25
2019-02-02T07:12:23.871Z,24.30
2019-02-02T07:13:27.829Z,22.48
2019-02-02T07:14:31.829Z,23.95
2019-02-02T07:15:36.010Z,24.55
2019-02-02T07:16:39.919Z,26.17
2019-02-02T07:17:43.824Z,25.12
2019-02-02T07:18:47.849Z,24.50
2019-02-02T07:19:51.651Z,27.35
2019-02-02T07:20:55.701Z,26.37
2019-02-02T07:21:59.822Z,25.80
2019-02-02T07:23:04.092Z,23.85
2019-02-02T07:24:08.115Z,24.40
2019-02-02T07:25:12.182Z,24.45
2019-02-02T07:26:16.361Z,23.15
2019-02-02T07:27:20.292Z,23.32
2019-02-02T07:28:24.075Z,24.30
2019-02-02T07:29:28.171Z,23.00
2019-02-02T07:30:32.077Z,24.20
2019-02-02T07:31:36.129Z,23.98
2019-02-02T07:32:40.289Z,22.65
2019-02-02T07:33:44.421Z,22.42
2019-02-02T07:34:48.437Z,22.42
2019-02-02T07:35:54.222Z,22.22
2019-02-02T07:36:58.268Z,21.37
2019-02-02T07:38:02.164Z,24.43
2019-02-02T07:39:07.815Z,25.20
2019-02-02T07:40:12.887Z,28.60
2019-02-02T07:41:16.862Z,28.75
2019-02-02T07:42:20.937Z,29.55
2019-02-02T07:43:24.971Z,48.02
2019-02-02T07:44:29.269Z,47.17
2019-02-02T07:45:33.251Z,36.83
2019-02-02T07:46:37.352Z,31.52
2019-02-02T07:47:41.402Z,27.32
2019-02-02T07:48:45.492Z,26.20
2019-02-02T07:49:49.718Z,27.93
2019-02-02T07:50:54.118Z,24.07
2019-02-02T07:51:58.255Z,23.52
2019-02-02T07:53:02.359Z,22.85
2019-02-02T07:54:06.315Z,22.22
2019-02-02T07:55:11.393Z,24.92
2019-02-02T07:56:15.527Z,26.17
2019-02-02T07:57:19.780Z,32.65
2019-02-02T07:58:23.891Z,26.02
2019-02-02T07:59:28.011Z,23.80
2019-02-02T08:00:40.695Z,23.67
2019-02-02T08:01:39.798Z,26.90
2019-02-02T08:02:43.714Z,25.20
2019-02-02T08:03:47.607Z,28.10
2019-02-02T08:04:51.503Z,29.42
2019-02-02T08:05:55.514Z,27.07
2019-02-02T08:06:59.626Z,29.02
2019-02-02T08:08:03.517Z,26.50
2019-02-02T08:09:09.151Z,26.87
2019-02-02T08:10:13.061Z,28.15
2019-02-02T08:11:17.095Z,25.40
2019-02-02T08:12:21.055Z,25.02
2019-02-02T08:13:25.068Z,25.08
2019-02-02T08:14:28.972Z,25.23
2019-02-02T08:15:33.341Z,24.55
2019-02-02T08:16:37.412Z,23.90
2019-02-02T08:17:41.344Z,24.70
2019-02-02T08:18:45.452Z,23.18
2019-02-02T08:19:49.347Z,23.40
2019-02-02T08:20:53.125Z,24.35
2019-02-02T08:21:57.032Z,25.08
2019-02-02T08:23:00.947Z,26.00
2019-02-02T08:24:04.934Z,26.05
2019-02-02T08:25:09.972Z,24.77
2019-02-02T08:26:13.970Z,24.47
2019-02-02T08:27:18.018Z,24.40
2019-02-02T08:28:22.026Z,24.72
2019-02-02T08:29:26.123Z,25.50
2019-02-02T08:30:35.433Z,23.90
2019-02-02T08:31:38.262Z,25.60
2019-02-02T08:32:42.376Z,22.27
2019-02-02T08:33:46.513Z,26.20
2019-02-02T08:34:50.529Z,24.87
2019-02-02T08:35:54.666Z,24.50
2019-02-02T08:36:58.446Z,25.08
2019-02-02T08:38:02.589Z,23.35
2019-02-02T08:39:09.417Z,24.60
2019-02-02T08:40:15.429Z,23.52
2019-02-02T08:41:19.590Z,23.50
2019-02-02T08:42:23.595Z,24.45
2019-02-02T08:43:27.712Z,25.25
2019-02-02T08:44:31.627Z,23.95
2019-02-02T08:45:35.558Z,25.50
2019-02-02T08:46:39.711Z,26.87
2019-02-02T08:47:43.980Z,24.60
2019-02-02T08:48:47.987Z,24.90
2019-02-02T08:49:52.028Z,25.75
2019-02-02T08:50:56.058Z,24.27
2019-02-02T08:52:00.165Z,23.02
2019-02-02T08:53:04.195Z,32.73
2019-02-02T08:54:08.263Z,35.55
2019-02-02T08:55:12.508Z,37.55
2019-02-02T08:56:16.440Z,37.05
2019-02-02T08:57:20.433Z,28.05
2019-02-02T08:58:24.453Z,24.40
2019-02-02T08:59:28.707Z,24.18
2019-02-02T09:00:32.848Z,24.45
2019-02-02T09:01:36.896Z,24.20
2019-02-02T09:02:40.970Z,24.43
2019-02-02T09:03:45.082Z,25.45
2019-02-02T09:04:49.145Z,23.90
2019-02-02T09:05:53.243Z,26.05
2019-02-02T09:06:57.375Z,23.85
2019-02-02T09:08:01.386Z,23.95
2019-02-02T09:09:08.309Z,24.55
2019-02-02T09:10:15.081Z,25.75
2019-02-02T09:11:18.987Z,24.75
2019-02-02T09:12:23.135Z,24.70
2019-02-02T09:13:27.309Z,25.23
2019-02-02T09:14:31.224Z,22.93
2019-02-02T09:15:35.298Z,24.15
2019-02-02T09:16:39.355Z,29.35
2019-02-02T09:17:43.407Z,31.02
2019-02-02T09:18:47.311Z,29.60
2019-02-02T09:19:51.315Z,29.32
2019-02-02T09:20:55.266Z,29.65
2019-02-02T09:21:59.127Z,31.42
2019-02-02T09:23:06.566Z,29.48
2019-02-02T09:24:08.800Z,28.77
2019-02-02T09:25:13.934Z,27.52
2019-02-02T09:26:17.960Z,28.10
2019-02-02T09:27:22.031Z,26.60
2019-02-02T09:28:25.956Z,25.55
2019-02-02T09:29:29.968Z,27.60
2019-02-02T09:30:36.086Z,27.93
2019-02-02T09:31:40.123Z,28.07
2019-02-02T09:32:44.103Z,25.50
2019-02-02T09:33:48.200Z,25.92
2019-02-02T09:34:52.210Z,25.43
2019-02-02T09:35:56.129Z,30.00
2019-02-02T09:37:00.056Z,27.35
2019-02-02T09:38:03.874Z,26.77
2019-02-02T09:39:08.803Z,26.60
2019-02-02T09:40:14.346Z,25.75
2019-02-02T09:41:18.668Z,25.48
2019-02-02T09:42:22.661Z,24.25
2019-02-02T09:43:26.819Z,25.12
2019-02-02T09:44:31.027Z,25.30
2019-02-02T09:45:35.028Z,25.57
2019-02-02T09:46:39.020Z,25.40
2019-02-02T09:47:42.947Z,26.02
2019-02-02T09:48:47.024Z,27.05
2019-02-02T09:49:51.021Z,29.00
2019-02-02T09:50:55.078Z,29.07
2019-02-02T09:51:59.085Z,31.65
2019-02-02T09:53:02.905Z,31.45
2019-02-02T09:54:09.093Z,30.55
2019-02-02T09:55:14.473Z,35.00
2019-02-02T09:56:18.402Z,37.45
2019-02-02T09:57:22.415Z,35.90
2019-02-02T09:58:26.535Z,30.10
2019-02-02T09:59:30.915Z,28.67
2019-02-02T10:00:34.936Z,27.27
2019-02-02T10:01:38.931Z,27.98
2019-02-02T10:02:45.911Z,27.75
2019-02-02T10:03:48.604Z,27.13
2019-02-02T10:04:52.935Z,26.57
2019-02-02T10:05:56.845Z,26.55
2019-02-02T10:07:00.858Z,26.23
2019-02-02T10:08:04.960Z,25.00
2019-02-02T10:09:09.538Z,26.37
2019-02-02T10:10:16.543Z,24.87
2019-02-02T10:11:20.591Z,25.68
2019-02-02T10:12:24.690Z,24.55
2019-02-02T10:13:28.577Z,24.90
2019-02-02T10:14:32.687Z,24.77
2019-02-02T10:15:36.617Z,23.80
2019-02-02T10:16:40.603Z,25.30
2019-02-02T10:17:44.630Z,25.27
2019-02-02T10:18:48.515Z,24.60
2019-02-02T10:19:52.525Z,24.10
2019-02-02T10:21:03.691Z,23.65
2019-02-02T10:22:02.353Z,25.00
2019-02-02T10:23:06.493Z,24.35
2019-02-02T10:24:10.565Z,22.95
2019-02-02T10:25:16.824Z,23.80
2019-02-02T10:26:20.862Z,24.30
2019-02-02T10:27:24.873Z,26.87
2019-02-02T10:28:29.066Z,26.68
2019-02-02T10:29:33.221Z,27.02
2019-02-02T10:30:39.727Z,25.48
2019-02-02T10:31:43.624Z,26.87
2019-02-02T10:32:47.725Z,25.37
2019-02-02T10:33:51.714Z,25.27
2019-02-02T10:34:55.535Z,25.12
2019-02-02T10:35:59.581Z,24.92
2019-02-02T10:37:03.514Z,25.52
2019-02-02T10:38:07.667Z,24.95
2019-02-02T10:39:11.794Z,25.25
2019-02-02T10:40:15.937Z,23.30
2019-02-02T10:41:19.971Z,25.57
2019-02-02T10:42:23.973Z,26.60
2019-02-02T10:43:28.134Z,26.35
2019-02-02T10:44:31.931Z,25.05
2019-02-02T10:45:35.873Z,24.92
2019-02-02T10:46:39.924Z,26.17
2019-02-02T10:47:43.863Z,26.40
2019-02-02T10:48:47.929Z,25.68
2019-02-02T10:49:52.004Z,26.62
2019-02-02T10:50:55.816Z,25.05
2019-02-02T10:51:59.927Z,25.12
2019-02-02T10:53:04.055Z,25.37
2019-02-02T10:54:07.953Z,26.95
2019-02-02T10:55:12.512Z,27.10
2019-02-02T10:56:16.512Z,26.17
2019-02-02T10:57:20.510Z,26.02
2019-02-02T10:58:24.511Z,28.57
2019-02-02T10:59:28.415Z,26.35
2019-02-02T11:00:34.323Z,26.68
2019-02-02T11:01:38.422Z,25.08
2019-02-02T11:02:42.358Z,28.57
2019-02-02T11:03:46.440Z,28.92
2019-02-02T11:04:53.398Z,28.57
2019-02-02T11:05:56.115Z,26.02
2019-02-02T11:07:00.326Z,28.27
2019-02-02T11:08:05.067Z,27.35
2019-02-02T11:09:09.862Z,27.62
2019-02-02T11:10:19.439Z,26.50
2019-02-02T11:11:23.460Z,25.37
2019-02-02T11:12:27.754Z,28.70
2019-02-02T11:13:31.795Z,27.48
2019-02-02T11:14:35.872Z,26.25
2019-02-02T11:15:39.855Z,25.88
2019-02-02T11:16:43.991Z,25.52
2019-02-02T11:17:48.188Z,25.70
2019-02-02T11:18:52.276Z,29.15
2019-02-02T11:19:56.363Z,26.55
2019-02-02T11:21:00.599Z,28.17
2019-02-02T11:22:04.779Z,27.50
2019-02-02T11:23:09.013Z,27.00
2019-02-02T11:24:13.307Z,27.07
2019-02-02T11:25:17.464Z,28.47
2019-02-02T11:26:21.573Z,26.65
2019-02-02T11:27:25.707Z,27.65
2019-02-02T11:28:29.891Z,27.22
2019-02-02T11:29:33.800Z,25.92
2019-02-02T11:30:38.043Z,26.68
2019-02-02T11:31:42.087Z,25.60
2019-02-02T11:32:45.994Z,27.75
2019-02-02T11:33:50.389Z,27.80
2019-02-02T11:34:54.292Z,29.32
2019-02-02T11:35:58.432Z,27.40
2019-02-02T11:37:02.463Z,27.25
2019-02-02T11:38:06.441Z,26.25
2019-02-02T11:39:10.515Z,27.27
2019-02-02T11:40:34.889Z,28.45
2019-02-02T11:41:38.791Z,26.10
2019-02-02T11:42:42.824Z,28.73
2019-02-02T11:43:53.347Z,29.45
2019-02-02T11:44:57.515Z,27.73
2019-02-02T11:46:01.564Z,27.37
2019-02-02T11:47:05.499Z,29.65
2019-02-02T11:48:09.391Z,27.95
2019-02-02T11:49:13.322Z,28.70
2019-02-02T11:50:17.552Z,30.00
2019-02-02T11:51:21.597Z,27.30
2019-02-02T11:52:25.518Z,27.30
2019-02-02T11:53:29.512Z,26.25
2019-02-02T11:54:33.501Z,27.42
2019-02-02T11:55:37.570Z,26.48
2019-02-02T11:56:41.694Z,26.97
2019-02-02T11:57:45.623Z,28.52
2019-02-02T11:58:49.710Z,27.07
2019-02-02T11:59:53.811Z,26.82
2019-02-02T12:00:57.748Z,28.73
2019-02-02T12:02:01.735Z,28.77
2019-02-02T12:03:05.609Z,28.10
2019-02-02T12:04:09.719Z,27.87
2019-02-02T12:05:15.261Z,27.00
2019-02-02T12:06:19.258Z,27.27
2019-02-02T12:07:23.189Z,28.55
2019-02-02T12:08:27.328Z,27.22
2019-02-02T12:09:31.256Z,27.48
2019-02-02T12:10:35.371Z,28.10
2019-02-02T12:11:39.366Z,27.65
2019-02-02T12:12:43.266Z,28.40
2019-02-02T12:13:47.295Z,28.42
2019-02-02T12:14:51.100Z,27.93
2019-02-02T12:15:55.018Z,26.57
2019-02-02T12:16:59.130Z,26.60
2019-02-02T12:18:03.022Z,27.37
2019-02-02T12:19:07.033Z,26.77
2019-02-02T12:20:12.580Z,29.27
2019-02-02T12:21:16.368Z,29.80
2019-02-02T12:22:20.331Z,27.85
2019-02-02T12:23:24.464Z,27.50
2019-02-02T12:24:28.380Z,28.27
2019-02-02T12:25:32.284Z,28.30
2019-02-02T12:26:36.287Z,28.73
2019-02-02T12:27:40.194Z,28.10
2019-02-02T12:28:44.259Z,28.07
2019-02-02T12:29:48.153Z,27.62
2019-02-02T12:30:52.172Z,29.30
2019-02-02T12:31:56.397Z,28.10
2019-02-02T12:33:02.969Z,28.40
2019-02-02T12:34:06.131Z,27.02
2019-02-02T12:35:13.013Z,28.47
2019-02-02T12:36:16.820Z,28.50
2019-02-02T12:37:20.848Z,27.82
2019-02-02T12:38:24.767Z,28.38
2019-02-02T12:39:28.882Z,27.52
2019-02-02T12:40:32.801Z,28.07
2019-02-02T12:41:36.610Z,26.42
2019-02-02T12:42:40.880Z,28.80
2019-02-02T12:43:45.005Z,28.75
2019-02-02T12:44:48.935Z,28.23
2019-02-02T12:45:54.122Z,29.80
2019-02-02T12:46:58.343Z,28.92
2019-02-02T12:48:02.454Z,29.12
2019-02-02T12:49:06.478Z,28.95
2019-02-02T12:50:11.453Z,28.15
2019-02-02T12:51:15.367Z,29.67
2019-02-02T12:52:19.163Z,28.20
2019-02-02T12:53:23.045Z,28.50
2019-02-02T12:54:26.829Z,30.45
2019-02-02T12:55:30.740Z,28.55
2019-02-02T12:56:34.633Z,31.73
2019-02-02T12:57:38.732Z,32.23
2019-02-02T12:58:42.888Z,30.25
2019-02-02T12:59:47.164Z,30.55
2019-02-02T13:00:51.227Z,30.48
2019-02-02T13:01:55.250Z,31.52
2019-02-02T13:02:59.195Z,30.32
2019-02-02T13:04:05.531Z,28.77
2019-02-02T13:05:09.143Z,29.67
2019-02-02T13:06:13.273Z,30.05
2019-02-02T13:07:17.287Z,28.67
2019-02-02T13:08:21.433Z,29.85
2019-02-02T13:09:25.230Z,30.10
2019-02-02T13:10:29.419Z,30.05
2019-02-02T13:11:33.524Z,28.77
2019-02-02T13:12:37.452Z,30.43
2019-02-02T13:13:42.702Z,27.70
2019-02-02T13:14:46.923Z,27.55
2019-02-02T13:15:50.956Z,28.25
2019-02-02T13:16:54.876Z,29.80
2019-02-02T13:17:58.721Z,29.27
2019-02-02T13:19:03.245Z,28.38
2019-02-02T13:20:07.956Z,27.95
2019-02-02T13:21:11.970Z,28.00
2019-02-02T13:22:15.825Z,28.47
2019-02-02T13:23:19.824Z,28.98
2019-02-02T13:24:23.869Z,29.27
2019-02-02T13:25:28.055Z,28.12
2019-02-02T13:26:32.123Z,27.45
2019-02-02T13:27:36.099Z,28.12
2019-02-02T13:28:40.079Z,29.37
2019-02-02T13:29:43.881Z,30.62
2019-02-02T13:30:47.985Z,29.02
2019-02-02T13:31:52.158Z,27.25
2019-02-02T13:32:56.211Z,28.73
2019-02-02T13:34:00.295Z,29.23
2019-02-02T13:35:04.873Z,30.65
2019-02-02T13:36:08.871Z,30.02
2019-02-02T13:37:12.773Z,28.85
2019-02-02T13:38:16.753Z,28.75
2019-02-02T13:39:20.861Z,30.60
2019-02-02T13:40:25.049Z,30.00
2019-02-02T13:41:29.088Z,28.42
2019-02-02T13:42:33.144Z,28.65
2019-02-02T13:43:37.331Z,27.50
2019-02-02T13:44:41.257Z,28.60
2019-02-02T13:45:45.159Z,28.32
2019-02-02T13:46:49.073Z,29.00